sensor_id;sensor_type;location;lat;lon;timestamp;pressure;altitude;pressure_sealevel;temperature;humidity
70976;BME280;58635;51.198;6.010;2022-07-29T00:00:10;101404.44;;;24.34;35.96
70976;BME280;58635;51.198;6.010;2022-07-29T00:02:35;101396.78;;;24.32;36.33
70976;BME280;58635;51.198;6.010;2022-07-29T00:05:02;101399.41;;;24.32;36.00
70976;BME280;58635;51.198;6.010;2022-07-29T00:07:27;101391.75;;;24.31;36.05
70976;BME280;58635;51.198;6.010;2022-07-29T00:09:53;101385.41;;;24.32;36.31
70976;BME280;58635;51.198;6.010;2022-07-29T00:12:20;101383.03;;;24.30;36.28
70976;BME280;58635;51.198;6.010;2022-07-29T00:14:46;101384.34;;;24.28;36.26
70976;BME280;58635;51.198;6.010;2022-07-29T00:17:11;101380.63;;;24.24;36.42
70976;BME280;58635;51.198;6.010;2022-07-29T00:19:36;101373.81;;;24.17;36.40
70976;BME280;58635;51.198;6.010;2022-07-29T00:22:02;101370.13;;;24.08;36.53
70976;BME280;58635;51.198;6.010;2022-07-29T00:24:27;101367.75;;;24.02;36.45
70976;BME280;58635;51.198;6.010;2022-07-29T00:26:52;101368.56;;;23.97;36.72
70976;BME280;58635;51.198;6.010;2022-07-29T00:29:18;101365.69;;;23.94;36.79
70976;BME280;58635;51.198;6.010;2022-07-29T00:31:43;101360.13;;;23.90;36.56
70976;BME280;58635;51.198;6.010;2022-07-29T00:34:09;101368.06;;;23.85;36.72
70976;BME280;58635;51.198;6.010;2022-07-29T00:36:54;101376.03;;;23.80;36.85
70976;BME280;58635;51.198;6.010;2022-07-29T00:39:19;101368.88;;;23.75;37.03
70976;BME280;58635;51.198;6.010;2022-07-29T00:41:45;101378.13;;;23.73;36.95
70976;BME280;58635;51.198;6.010;2022-07-29T00:44:10;101373.41;;;23.70;37.03
70976;BME280;58635;51.198;6.010;2022-07-29T00:46:36;101396.09;;;23.71;36.87
70976;BME280;58635;51.198;6.010;2022-07-29T00:49:01;101421.97;;;23.74;37.33
70976;BME280;58635;51.198;6.010;2022-07-29T00:51:26;101437.28;;;23.77;37.28
70976;BME280;58635;51.198;6.010;2022-07-29T00:53:52;101441.25;;;23.79;37.77
70976;BME280;58635;51.198;6.010;2022-07-29T00:56:18;101440.72;;;23.77;38.33
70976;BME280;58635;51.198;6.010;2022-07-29T00:58:46;101431.22;;;23.71;38.84
70976;BME280;58635;51.198;6.010;2022-07-29T01:01:12;101419.34;;;23.69;39.25
70976;BME280;58635;51.198;6.010;2022-07-29T01:03:37;101423.56;;;23.65;39.48
70976;BME280;58635;51.198;6.010;2022-07-29T01:06:04;101435.19;;;23.58;39.29
70976;BME280;58635;51.198;6.010;2022-07-29T01:08:31;101425.66;;;23.52;39.46
70976;BME280;58635;51.198;6.010;2022-07-29T01:10:58;101426.44;;;23.43;40.19
70976;BME280;58635;51.198;6.010;2022-07-29T01:13:25;101423.78;;;23.27;41.93
70976;BME280;58635;51.198;6.010;2022-07-29T01:15:59;101410.03;;;23.05;43.32
70976;BME280;58635;51.198;6.010;2022-07-29T01:18:34;101410.78;;;22.85;44.35
70976;BME280;58635;51.198;6.010;2022-07-29T01:23:52;101395.34;;;22.52;46.18
70976;BME280;58635;51.198;6.010;2022-07-29T01:29:16;101377.53;;;22.16;47.96
70976;BME280;58635;51.198;6.010;2022-07-29T01:31:59;101372.13;;;22.01;48.36
70976;BME280;58635;51.198;6.010;2022-07-29T01:37:13;101372.81;;;21.81;48.98
70976;BME280;58635;51.198;6.010;2022-07-29T01:39:41;101383.56;;;21.75;49.46
70976;BME280;58635;51.198;6.010;2022-07-29T01:44:54;101374.00;;;21.64;50.40
70976;BME280;58635;51.198;6.010;2022-07-29T01:47:25;101374.47;;;21.55;50.63
70976;BME280;58635;51.198;6.010;2022-07-29T01:49:55;101382.06;;;21.52;50.86
70976;BME280;58635;51.198;6.010;2022-07-29T01:52:34;101371.78;;;21.50;50.66
70976;BME280;58635;51.198;6.010;2022-07-29T01:55:09;101376.53;;;21.48;50.51
70976;BME280;58635;51.198;6.010;2022-07-29T01:57:37;101373.34;;;21.46;50.90
70976;BME280;58635;51.198;6.010;2022-07-29T02:00:05;101370.19;;;21.44;51.04
70976;BME280;58635;51.198;6.010;2022-07-29T02:02:32;101363.63;;;21.47;51.68
70976;BME280;58635;51.198;6.010;2022-07-29T02:05:00;101358.63;;;21.50;51.70
70976;BME280;58635;51.198;6.010;2022-07-29T02:07:28;101360.53;;;21.55;51.46
70976;BME280;58635;51.198;6.010;2022-07-29T02:09:55;101356.09;;;21.60;51.37
70976;BME280;58635;51.198;6.010;2022-07-29T02:12:24;101373.75;;;21.65;51.21
70976;BME280;58635;51.198;6.010;2022-07-29T02:14:53;101367.19;;;21.68;51.29
70976;BME280;58635;51.198;6.010;2022-07-29T02:17:29;101366.63;;;21.66;51.59
70976;BME280;58635;51.198;6.010;2022-07-29T02:19:57;101356.09;;;21.60;51.54
70976;BME280;58635;51.198;6.010;2022-07-29T02:22:26;101368.44;;;21.55;51.81
70976;BME280;58635;51.198;6.010;2022-07-29T02:24:55;101355.50;;;21.53;52.19
70976;BME280;58635;51.198;6.010;2022-07-29T02:27:22;101343.91;;;21.54;52.23
70976;BME280;58635;51.198;6.010;2022-07-29T02:29:49;101342.91;;;21.55;51.87
70976;BME280;58635;51.198;6.010;2022-07-29T02:32:16;101350.53;;;21.57;51.95
70976;BME280;58635;51.198;6.010;2022-07-29T02:34:43;101351.06;;;21.59;51.63
70976;BME280;58635;51.198;6.010;2022-07-29T02:37:12;101346.88;;;21.63;51.81
70976;BME280;58635;51.198;6.010;2022-07-29T02:39:40;101342.94;;;21.66;51.36
70976;BME280;58635;51.198;6.010;2022-07-29T02:42:10;101343.25;;;21.69;51.20
70976;BME280;58635;51.198;6.010;2022-07-29T02:44:36;101335.09;;;21.71;50.91
70976;BME280;58635;51.198;6.010;2022-07-29T02:49:50;101335.31;;;21.64;49.82
70976;BME280;58635;51.198;6.010;2022-07-29T02:52:34;101333.19;;;21.61;49.45
70976;BME280;58635;51.198;6.010;2022-07-29T02:55:16;101342.63;;;21.57;49.97
70976;BME280;58635;51.198;6.010;2022-07-29T02:57:58;101328.38;;;21.53;50.13
70976;BME280;58635;51.198;6.010;2022-07-29T03:00:27;101335.47;;;21.47;50.45
70976;BME280;58635;51.198;6.010;2022-07-29T03:02:54;101340.66;;;21.42;50.24
70976;BME280;58635;51.198;6.010;2022-07-29T03:05:22;101354.84;;;21.36;50.45
70976;BME280;58635;51.198;6.010;2022-07-29T03:08:08;101362.19;;;21.34;50.94
70976;BME280;58635;51.198;6.010;2022-07-29T03:10:34;101365.63;;;21.35;51.40
70976;BME280;58635;51.198;6.010;2022-07-29T03:13:02;101367.47;;;21.34;51.34
70976;BME280;58635;51.198;6.010;2022-07-29T03:15:29;101376.16;;;21.35;51.47
70976;BME280;58635;51.198;6.010;2022-07-29T03:17:55;101369.84;;;21.36;51.85
70976;BME280;58635;51.198;6.010;2022-07-29T03:20:21;101364.56;;;21.36;52.01
70976;BME280;58635;51.198;6.010;2022-07-29T03:22:46;101371.16;;;21.38;51.97
70976;BME280;58635;51.198;6.010;2022-07-29T03:25:17;101367.25;;;21.41;52.15
70976;BME280;58635;51.198;6.010;2022-07-29T03:27:43;101358.00;;;21.38;52.51
70976;BME280;58635;51.198;6.010;2022-07-29T03:30:10;101349.06;;;21.39;52.75
70976;BME280;58635;51.198;6.010;2022-07-29T03:32:36;101346.69;;;21.38;52.40
70976;BME280;58635;51.198;6.010;2022-07-29T03:35:02;101346.94;;;21.36;52.23
70976;BME280;58635;51.198;6.010;2022-07-29T03:37:28;101328.25;;;21.33;52.19
70976;BME280;58635;51.198;6.010;2022-07-29T03:39:56;101339.56;;;21.33;52.13
70976;BME280;58635;51.198;6.010;2022-07-29T03:42:25;101346.66;;;21.33;51.99
70976;BME280;58635;51.198;6.010;2022-07-29T03:44:52;101347.72;;;21.32;51.98
70976;BME280;58635;51.198;6.010;2022-07-29T03:47:20;101342.44;;;21.32;52.14
70976;BME280;58635;51.198;6.010;2022-07-29T03:49:50;101337.41;;;21.30;52.56
70976;BME280;58635;51.198;6.010;2022-07-29T03:52:17;101347.94;;;21.30;52.44
70976;BME280;58635;51.198;6.010;2022-07-29T03:54:43;101350.28;;;21.26;52.30
70976;BME280;58635;51.198;6.010;2022-07-29T03:57:10;101349.50;;;21.26;52.26
70976;BME280;58635;51.198;6.010;2022-07-29T03:59:36;101351.34;;;21.25;51.98
70976;BME280;58635;51.198;6.010;2022-07-29T04:02:04;101354.75;;;21.26;52.04
70976;BME280;58635;51.198;6.010;2022-07-29T04:04:33;101360.25;;;21.24;52.21
70976;BME280;58635;51.198;6.010;2022-07-29T04:06:59;101358.41;;;21.25;52.10
70976;BME280;58635;51.198;6.010;2022-07-29T04:09:25;101355.56;;;21.26;52.22
70976;BME280;58635;51.198;6.010;2022-07-29T04:11:51;101357.66;;;21.29;52.60
70976;BME280;58635;51.198;6.010;2022-07-29T04:14:17;101361.09;;;21.30;52.56
70976;BME280;58635;51.198;6.010;2022-07-29T04:16:42;101353.19;;;21.30;52.99
70976;BME280;58635;51.198;6.010;2022-07-29T04:19:08;101364.50;;;21.25;53.09
70976;BME280;58635;51.198;6.010;2022-07-29T04:21:40;101348.94;;;21.24;53.15
70976;BME280;58635;51.198;6.010;2022-07-29T04:24:06;101352.31;;;21.19;53.60
70976;BME280;58635;51.198;6.010;2022-07-29T04:26:32;101344.13;;;21.16;53.56
70976;BME280;58635;51.198;6.010;2022-07-29T04:28:57;101347.78;;;21.15;53.84
70976;BME280;58635;51.198;6.010;2022-07-29T04:31:23;101340.94;;;21.14;53.91
70976;BME280;58635;51.198;6.010;2022-07-29T04:33:48;101336.47;;;21.14;54.01
70976;BME280;58635;51.198;6.010;2022-07-29T04:36:14;101339.09;;;21.14;54.06
70976;BME280;58635;51.198;6.010;2022-07-29T04:38:39;101344.91;;;21.16;54.08
70976;BME280;58635;51.198;6.010;2022-07-29T04:41:05;101346.50;;;21.17;54.06
70976;BME280;58635;51.198;6.010;2022-07-29T04:43:35;101337.00;;;21.16;54.05
70976;BME280;58635;51.198;6.010;2022-07-29T04:46:01;101329.63;;;21.13;54.16
70976;BME280;58635;51.198;6.010;2022-07-29T04:48:27;101327.53;;;21.15;54.01
70976;BME280;58635;51.198;6.010;2022-07-29T04:50:52;101332.00;;;21.15;53.99
70976;BME280;58635;51.198;6.010;2022-07-29T04:53:17;101336.47;;;21.14;54.04
70976;BME280;58635;51.198;6.010;2022-07-29T04:55:43;101342.53;;;21.15;53.80
70976;BME280;58635;51.198;6.010;2022-07-29T04:58:10;101342.00;;;21.13;53.64
70976;BME280;58635;51.198;6.010;2022-07-29T05:00:35;101341.44;;;21.11;53.85
70976;BME280;58635;51.198;6.010;2022-07-29T05:03:01;101343.22;;;21.05;54.36
70976;BME280;58635;51.198;6.010;2022-07-29T05:05:26;101358.97;;;21.00;54.39
70976;BME280;58635;51.198;6.010;2022-07-29T05:07:52;101360.25;;;20.97;54.62
70976;BME280;58635;51.198;6.010;2022-07-29T05:10:17;101371.56;;;20.98;54.65
70976;BME280;58635;51.198;6.010;2022-07-29T05:12:43;101376.59;;;20.99;54.60
70976;BME280;58635;51.198;6.010;2022-07-29T05:15:08;101372.66;;;21.02;54.46
70976;BME280;58635;51.198;6.010;2022-07-29T05:17:34;101357.41;;;21.04;54.74
70976;BME280;58635;51.198;6.010;2022-07-29T05:20:00;101364.34;;;21.10;54.80
70976;BME280;58635;51.198;6.010;2022-07-29T05:22:25;101361.72;;;21.15;54.85
70976;BME280;58635;51.198;6.010;2022-07-29T05:24:51;101369.09;;;21.13;54.66
70976;BME280;58635;51.198;6.010;2022-07-29T05:27:16;101361.19;;;21.13;54.64
70976;BME280;58635;51.198;6.010;2022-07-29T05:29:41;101366.75;;;21.17;55.00
70976;BME280;58635;51.198;6.010;2022-07-29T05:32:07;101365.16;;;21.16;54.98
70976;BME280;58635;51.198;6.010;2022-07-29T05:34:32;101363.56;;;21.15;55.20
70976;BME280;58635;51.198;6.010;2022-07-29T05:36:58;101362.53;;;21.16;55.36
70976;BME280;58635;51.198;6.010;2022-07-29T05:39:23;101371.47;;;21.15;55.24
70976;BME280;58635;51.198;6.010;2022-07-29T05:41:49;101362.50;;;21.11;55.79
70976;BME280;58635;51.198;6.010;2022-07-29T05:44:14;101365.63;;;21.08;55.88
70976;BME280;58635;51.198;6.010;2022-07-29T05:46:40;101361.63;;;21.05;56.22
70976;BME280;58635;51.198;6.010;2022-07-29T05:49:05;101348.69;;;20.98;56.37
70976;BME280;58635;51.198;6.010;2022-07-29T05:51:34;101355.47;;;20.94;56.76
70976;BME280;58635;51.198;6.010;2022-07-29T05:54:00;101348.88;;;20.92;56.80
70976;BME280;58635;51.198;6.010;2022-07-29T05:56:25;101351.00;;;20.95;56.81
70976;BME280;58635;51.198;6.010;2022-07-29T05:58:51;101356.78;;;20.92;56.57
70976;BME280;58635;51.198;6.010;2022-07-29T06:01:16;101363.63;;;20.93;56.40
70976;BME280;58635;51.198;6.010;2022-07-29T06:03:42;101368.94;;;20.98;56.54
70976;BME280;58635;51.198;6.010;2022-07-29T06:06:08;101372.41;;;21.03;56.18
70976;BME280;58635;51.198;6.010;2022-07-29T06:08:33;101377.97;;;21.07;56.14
70976;BME280;58635;51.198;6.010;2022-07-29T06:11:00;101381.16;;;21.09;56.14
70976;BME280;58635;51.198;6.010;2022-07-29T06:13:25;101379.34;;;21.15;56.04
70976;BME280;58635;51.198;6.010;2022-07-29T06:15:51;101368.09;;;21.19;55.83
70976;BME280;58635;51.198;6.010;2022-07-29T06:18:16;101371.81;;;21.23;55.51
70976;BME280;58635;51.198;6.010;2022-07-29T06:20:42;101382.41;;;21.28;55.42
70976;BME280;58635;51.198;6.010;2022-07-29T06:23:07;101383.78;;;21.36;55.43
70976;BME280;58635;51.198;6.010;2022-07-29T06:25:33;101392.81;;;21.45;55.19
70976;BME280;58635;51.198;6.010;2022-07-29T06:28:00;101391.34;;;21.59;55.24
70976;BME280;58635;51.198;6.010;2022-07-29T06:30:25;101400.91;;;21.71;55.35
70976;BME280;58635;51.198;6.010;2022-07-29T06:32:51;101404.09;;;21.78;55.04
70976;BME280;58635;51.198;6.010;2022-07-29T06:35:17;101397.31;;;21.82;55.13
70976;BME280;58635;51.198;6.010;2022-07-29T06:37:42;101411.81;;;21.84;54.86
70976;BME280;58635;51.198;6.010;2022-07-29T06:40:08;101406.78;;;21.83;55.13
70976;BME280;58635;51.198;6.010;2022-07-29T06:42:52;101418.13;;;21.83;54.91
70976;BME280;58635;51.198;6.010;2022-07-29T06:45:17;101418.41;;;21.87;54.73
70976;BME280;58635;51.198;6.010;2022-07-29T06:47:43;101427.94;;;21.93;54.71
70976;BME280;58635;51.198;6.010;2022-07-29T06:50:08;101429.81;;;21.98;54.42
70976;BME280;58635;51.198;6.010;2022-07-29T06:52:37;101430.06;;;22.01;54.48
70976;BME280;58635;51.198;6.010;2022-07-29T06:55:03;101430.38;;;22.05;54.53
70976;BME280;58635;51.198;6.010;2022-07-29T06:57:28;101434.13;;;22.09;54.79
70976;BME280;58635;51.198;6.010;2022-07-29T06:59:56;101430.97;;;22.12;54.58
70976;BME280;58635;51.198;6.010;2022-07-29T07:02:21;101436.81;;;22.14;54.42
70976;BME280;58635;51.198;6.010;2022-07-29T07:04:47;101433.66;;;22.17;54.20
70976;BME280;58635;51.198;6.010;2022-07-29T07:07:12;101433.66;;;22.17;54.17
70976;BME280;58635;51.198;6.010;2022-07-29T07:09:38;101433.91;;;22.15;54.07
70976;BME280;58635;51.198;6.010;2022-07-29T07:12:03;101446.28;;;22.15;54.09
70976;BME280;58635;51.198;6.010;2022-07-29T07:14:29;101451.56;;;22.15;54.34
70976;BME280;58635;51.198;6.010;2022-07-29T07:16:54;101444.72;;;22.14;53.91
70976;BME280;58635;51.198;6.010;2022-07-29T07:19:19;101440.47;;;22.13;54.04
70976;BME280;58635;51.198;6.010;2022-07-29T07:21:45;101447.56;;;22.12;54.03
70976;BME280;58635;51.198;6.010;2022-07-29T07:24:10;101438.63;;;22.13;53.60
70976;BME280;58635;51.198;6.010;2022-07-29T07:26:35;101442.59;;;22.16;53.51
70976;BME280;58635;51.198;6.010;2022-07-29T07:29:01;101449.47;;;22.17;53.36
70976;BME280;58635;51.198;6.010;2022-07-29T07:31:26;101461.84;;;22.22;53.67
70976;BME280;58635;51.198;6.010;2022-07-29T07:33:52;101450.00;;;22.24;53.53
70976;BME280;58635;51.198;6.010;2022-07-29T07:36:18;101450.56;;;22.26;53.34
70976;BME280;58635;51.198;6.010;2022-07-29T07:38:44;101451.66;;;22.30;53.62
70976;BME280;58635;51.198;6.010;2022-07-29T07:41:09;101451.06;;;22.23;53.81
70976;BME280;58635;51.198;6.010;2022-07-29T07:43:35;101460.25;;;22.15;54.02
70976;BME280;58635;51.198;6.010;2022-07-29T07:46:00;101461.00;;;22.11;53.83
70976;BME280;58635;51.198;6.010;2022-07-29T07:48:26;101449.38;;;22.07;53.67
70976;BME280;58635;51.198;6.010;2022-07-29T07:50:51;101458.09;;;22.12;53.70
70976;BME280;58635;51.198;6.010;2022-07-29T07:53:17;101458.94;;;22.18;53.67
70976;BME280;58635;51.198;6.010;2022-07-29T07:55:43;101461.84;;;22.22;53.54
70976;BME280;58635;51.198;6.010;2022-07-29T07:58:09;101454.22;;;22.25;53.66
70976;BME280;58635;51.198;6.010;2022-07-29T08:00:35;101451.13;;;22.28;53.64
70976;BME280;58635;51.198;6.010;2022-07-29T08:03:00;101461.41;;;22.35;53.62
70976;BME280;58635;51.198;6.010;2022-07-29T08:05:26;101461.47;;;22.45;53.61
70976;BME280;58635;51.198;6.010;2022-07-29T08:07:51;101464.72;;;22.62;53.05
70976;BME280;58635;51.198;6.010;2022-07-29T08:10:18;101466.97;;;22.86;52.88
70976;BME280;58635;51.198;6.010;2022-07-29T08:13:07;101461.47;;;23.08;52.60
70976;BME280;58635;51.198;6.010;2022-07-29T08:15:33;101465.75;;;23.24;52.29
70976;BME280;58635;51.198;6.010;2022-07-29T08:17:59;101471.06;;;23.44;51.93
70976;BME280;58635;51.198;6.010;2022-07-29T08:20:25;101471.88;;;23.65;52.07
70976;BME280;58635;51.198;6.010;2022-07-29T08:22:51;101477.19;;;23.85;51.15
70976;BME280;58635;51.198;6.010;2022-07-29T08:25:17;101484.81;;;24.07;51.35
70976;BME280;58635;51.198;6.010;2022-07-29T08:27:46;101478.44;;;24.24;50.82
70976;BME280;58635;51.198;6.010;2022-07-29T08:30:11;101484.78;;;24.38;50.52
70976;BME280;58635;51.198;6.010;2022-07-29T08:32:37;101481.31;;;24.47;49.93
70976;BME280;58635;51.198;6.010;2022-07-29T08:35:02;101483.16;;;24.57;49.48
70976;BME280;58635;51.198;6.010;2022-07-29T08:37:28;101485.75;;;24.67;49.31
70976;BME280;58635;51.198;6.010;2022-07-29T08:39:53;101491.03;;;24.77;48.67
70976;BME280;58635;51.198;6.010;2022-07-29T08:42:18;101492.28;;;24.90;48.33
70976;BME280;58635;51.198;6.010;2022-07-29T08:44:44;101490.03;;;25.18;48.31
70976;BME280;58635;51.198;6.010;2022-07-29T08:47:13;101485.38;;;25.44;48.00
70976;BME280;58635;51.198;6.010;2022-07-29T08:49:39;101484.22;;;25.55;47.82
70976;BME280;58635;51.198;6.010;2022-07-29T08:52:05;101478.91;;;25.60;47.32
70976;BME280;58635;51.198;6.010;2022-07-29T08:54:31;101487.09;;;25.63;47.06
70976;BME280;58635;51.198;6.010;2022-07-29T08:56:58;101483.72;;;25.53;45.96
70976;BME280;58635;51.198;6.010;2022-07-29T08:59:25;101477.53;;;25.28;46.73
70976;BME280;58635;51.198;6.010;2022-07-29T09:01:53;101488.78;;;25.10;46.99
70976;BME280;58635;51.198;6.010;2022-07-29T09:04:19;101483.53;;;24.95;47.23
70976;BME280;58635;51.198;6.010;2022-07-29T09:06:47;101484.44;;;24.75;47.52
70976;BME280;58635;51.198;6.010;2022-07-29T09:09:14;101480.47;;;24.67;47.66
70976;BME280;58635;51.198;6.010;2022-07-29T09:11:41;101483.34;;;24.71;47.91
70976;BME280;58635;51.198;6.010;2022-07-29T09:14:07;101487.09;;;24.65;47.18
70976;BME280;58635;51.198;6.010;2022-07-29T09:16:52;101485.00;;;24.57;47.68
70976;BME280;58635;51.198;6.010;2022-07-29T09:19:25;101497.44;;;24.56;47.44
70976;BME280;58635;51.198;6.010;2022-07-29T09:21:52;101493.72;;;24.57;47.05
70976;BME280;58635;51.198;6.010;2022-07-29T09:24:35;101498.75;;;24.59;46.75
70976;BME280;58635;51.198;6.010;2022-07-29T09:27:08;101498.69;;;24.74;46.45
70976;BME280;58635;51.198;6.010;2022-07-29T09:29:35;101504.69;;;24.95;46.13
70976;BME280;58635;51.198;6.010;2022-07-29T09:32:06;101494.28;;;25.19;45.73
70976;BME280;58635;51.198;6.010;2022-07-29T09:34:31;101492.59;;;25.33;45.56
70976;BME280;58635;51.198;6.010;2022-07-29T09:36:57;101490.66;;;25.49;45.99
70976;BME280;58635;51.198;6.010;2022-07-29T09:41:54;101499.63;;;25.53;45.51
70976;BME280;58635;51.198;6.010;2022-07-29T09:44:24;101497.03;;;25.48;45.24
70976;BME280;58635;51.198;6.010;2022-07-29T09:47:01;101500.41;;;25.53;45.85
70976;BME280;58635;51.198;6.010;2022-07-29T09:49:34;101495.09;;;25.58;45.98
70976;BME280;58635;51.198;6.010;2022-07-29T09:52:04;101490.03;;;25.62;45.83
70976;BME280;58635;51.198;6.010;2022-07-29T09:54:30;101491.94;;;25.51;45.93
70976;BME280;58635;51.198;6.010;2022-07-29T09:57:05;101500.25;;;25.40;45.68
70976;BME280;58635;51.198;6.010;2022-07-29T09:59:31;101500.84;;;25.26;46.01
70976;BME280;58635;51.198;6.010;2022-07-29T10:01:57;101504.06;;;25.18;45.98
70976;BME280;58635;51.198;6.010;2022-07-29T10:04:22;101500.19;;;25.00;46.47
70976;BME280;58635;51.198;6.010;2022-07-29T10:09:23;101508.94;;;25.01;46.29
70976;BME280;58635;51.198;6.010;2022-07-29T10:12:09;101502.53;;;25.12;45.74
70976;BME280;58635;51.198;6.010;2022-07-29T10:14:37;101501.66;;;25.27;45.55
70976;BME280;58635;51.198;6.010;2022-07-29T10:17:04;101498.69;;;25.33;45.49
70976;BME280;58635;51.198;6.010;2022-07-29T10:19:30;101506.59;;;25.39;45.09
70976;BME280;58635;51.198;6.010;2022-07-29T10:21:58;101498.91;;;25.42;45.25
70976;BME280;58635;51.198;6.010;2022-07-29T10:24:28;101498.59;;;25.49;45.56
70976;BME280;58635;51.198;6.010;2022-07-29T10:26:56;101490.09;;;25.52;45.28
70976;BME280;58635;51.198;6.010;2022-07-29T10:29:23;101490.38;;;25.50;45.21
70976;BME280;58635;51.198;6.010;2022-07-29T10:32:08;101492.69;;;25.57;45.36
70976;BME280;58635;51.198;6.010;2022-07-29T10:43:45;101497.84;;;25.82;44.93
70976;BME280;58635;51.198;6.010;2022-07-29T10:46:12;101488.47;;;25.90;44.97
70976;BME280;58635;51.198;6.010;2022-07-29T10:49:05;101492.88;;;26.05;44.15
70976;BME280;58635;51.198;6.010;2022-07-29T10:54:36;101501.25;;;26.17;44.54
70976;BME280;58635;51.198;6.010;2022-07-29T10:59:51;101491.97;;;26.43;43.49
70976;BME280;58635;51.198;6.010;2022-07-29T11:05:04;101493.41;;;26.78;43.24
70976;BME280;58635;51.198;6.010;2022-07-29T11:07:31;101492.81;;;27.05;43.31
70976;BME280;58635;51.198;6.010;2022-07-29T11:15:03;101492.28;;;27.92;41.71
70976;BME280;58635;51.198;6.010;2022-07-29T11:20:54;101489.44;;;28.03;41.41
70976;BME280;58635;51.198;6.010;2022-07-29T11:23:29;101489.56;;;28.11;41.26
70976;BME280;58635;51.198;6.010;2022-07-29T11:31:38;101494.09;;;28.24;41.38
70976;BME280;58635;51.198;6.010;2022-07-29T11:34:31;101488.13;;;28.33;41.47
70976;BME280;58635;51.198;6.010;2022-07-29T11:39:33;101488.50;;;28.40;41.63
70976;BME280;58635;51.198;6.010;2022-07-29T11:50:16;101497.69;;;29.25;39.88
70976;BME280;58635;51.198;6.010;2022-07-29T11:52:46;101494.44;;;29.50;39.41
70976;BME280;58635;51.198;6.010;2022-07-29T11:55:14;101489.28;;;29.76;38.61
70976;BME280;58635;51.198;6.010;2022-07-29T11:57:51;101482.63;;;29.96;38.21
70976;BME280;58635;51.198;6.010;2022-07-29T12:03:00;101479.13;;;30.18;37.99
70976;BME280;58635;51.198;6.010;2022-07-29T12:05:37;101488.88;;;30.22;37.90
70976;BME280;58635;51.198;6.010;2022-07-29T12:08:17;101482.50;;;30.32;37.49
70976;BME280;58635;51.198;6.010;2022-07-29T12:10:45;101484.84;;;30.42;36.74
70976;BME280;58635;51.198;6.010;2022-07-29T12:13:12;101483.00;;;30.51;36.78
70976;BME280;58635;51.198;6.010;2022-07-29T12:15:37;101474.88;;;30.65;36.49
70976;BME280;58635;51.198;6.010;2022-07-29T12:18:29;101475.06;;;30.69;35.91
70976;BME280;58635;51.198;6.010;2022-07-29T12:20:59;101474.53;;;30.58;34.96
70976;BME280;58635;51.198;6.010;2022-07-29T12:23:24;101491.13;;;30.38;34.85
70976;BME280;58635;51.198;6.010;2022-07-29T12:25:50;101478.84;;;30.19;35.38
70976;BME280;58635;51.198;6.010;2022-07-29T12:28:15;101484.03;;;30.24;36.39
70976;BME280;58635;51.198;6.010;2022-07-29T12:30:45;101484.84;;;30.42;35.85
70976;BME280;58635;51.198;6.010;2022-07-29T12:33:13;101477.53;;;30.56;35.89
70976;BME280;58635;51.198;6.010;2022-07-29T12:35:39;101483.06;;;30.69;36.04
70976;BME280;58635;51.198;6.010;2022-07-29T12:38:06;101476.63;;;30.87;35.25
70976;BME280;58635;51.198;6.010;2022-07-29T12:40:32;101479.78;;;30.98;35.01
70976;BME280;58635;51.198;6.010;2022-07-29T12:43:11;101487.34;;;30.96;35.54
70976;BME280;58635;51.198;6.010;2022-07-29T12:45:38;101477.13;;;31.06;34.50
70976;BME280;58635;51.198;6.010;2022-07-29T12:48:05;101475.69;;;31.18;34.17
70976;BME280;58635;51.198;6.010;2022-07-29T12:50:31;101482.97;;;31.26;33.54
70976;BME280;58635;51.198;6.010;2022-07-29T12:53:11;101478.09;;;31.28;33.74
70976;BME280;58635;51.198;6.010;2022-07-29T12:55:45;101475.09;;;31.21;33.35
70976;BME280;58635;51.198;6.010;2022-07-29T12:58:25;101476.03;;;31.25;32.70
70976;BME280;58635;51.198;6.010;2022-07-29T13:03:27;101472.84;;;31.49;32.49
70976;BME280;58635;51.198;6.010;2022-07-29T13:05:53;101470.03;;;31.45;31.71
70976;BME280;58635;51.198;6.010;2022-07-29T13:08:18;101462.97;;;31.32;32.46
70976;BME280;58635;51.198;6.010;2022-07-29T13:10:45;101467.06;;;31.38;32.02
70976;BME280;58635;51.198;6.010;2022-07-29T13:13:12;101461.53;;;31.52;32.09
70976;BME280;58635;51.198;6.010;2022-07-29T13:15:43;101467.78;;;31.64;31.74
70976;BME280;58635;51.198;6.010;2022-07-29T13:18:33;101467.59;;;31.69;31.46
70976;BME280;58635;51.198;6.010;2022-07-29T13:21:13;101465.06;;;31.82;31.31
70976;BME280;58635;51.198;6.010;2022-07-29T13:23:38;101461.91;;;31.88;31.65
70976;BME280;58635;51.198;6.010;2022-07-29T13:26:08;101463.50;;;31.81;31.79
70976;BME280;58635;51.198;6.010;2022-07-29T13:28:34;101468.72;;;31.68;32.13
70976;BME280;58635;51.198;6.010;2022-07-29T13:31:00;101460.41;;;31.61;32.65
70976;BME280;58635;51.198;6.010;2022-07-29T13:33:26;101451.22;;;31.71;32.39
70976;BME280;58635;51.198;6.010;2022-07-29T13:35:51;101456.72;;;31.83;31.67
70976;BME280;58635;51.198;6.010;2022-07-29T13:38:17;101454.94;;;31.96;31.80
70976;BME280;58635;51.198;6.010;2022-07-29T13:40:42;101455.19;;;32.12;31.38
70976;BME280;58635;51.198;6.010;2022-07-29T13:43:11;101459.22;;;32.26;31.04
70976;BME280;58635;51.198;6.010;2022-07-29T13:45:46;101460.91;;;32.40;31.02
70976;BME280;58635;51.198;6.010;2022-07-29T13:48:11;101459.59;;;32.46;30.54
70976;BME280;58635;51.198;6.010;2022-07-29T13:50:37;101446.22;;;32.46;30.22
70976;BME280;58635;51.198;6.010;2022-07-29T13:53:02;101446.53;;;32.44;30.95
70976;BME280;58635;51.198;6.010;2022-07-29T13:55:29;101447.63;;;32.43;29.96
70976;BME280;58635;51.198;6.010;2022-07-29T13:57:54;101447.19;;;32.41;30.16
70976;BME280;58635;51.198;6.010;2022-07-29T14:00:19;101445.50;;;32.28;30.96